Time;durP1;ratioP1;P1;durP2;ratioP2;P2;SDS_P1;SDS_P2;PMS_P1;PMS_P2;Temp;Humidity;BMP_temperature;BMP_pressure;BME280_temperature;BME280_humidity;BME280_pressure;Samples;Min_cycle;Max_cycle;Signal;HPM_P1;HPM_P2
2021/10/29 00:00:46;;;;;;;;;29.75;27.25;;;;;12.54;64.11;101778.50;146596;603;46016;-75
2021/10/29 00:03:20;;;;;;;;;29.25;24.50;;;;;12.70;64.06;101818.53;146599;671;46908;-74
2021/10/29 00:05:54;;;;;;;;;25.25;22.25;;;;;12.70;63.58;101802.91;146597;586;47010;-74
2021/10/29 00:08:28;;;;;;;;;30.50;27.50;;;;;12.75;64.56;101803.19;146600;626;46020;-73
2021/10/29 00:11:02;;;;;;;;;28.00;26.00;;;;;12.75;63.55;101800.59;146594;706;47011;-74
2021/10/29 00:13:36;;;;;;;;;25.75;23.50;;;;;12.79;64.17;101799.06;146598;579;47008;-74
2021/10/29 00:16:10;;;;;;;;;26.50;23.75;;;;;12.71;65.03;101789.13;146598;631;46010;-74
2021/10/29 00:18:44;;;;;;;;;25.25;22.00;;;;;12.71;64.23;101794.31;146597;617;47008;-74
2021/10/29 00:21:18;;;;;;;;;32.00;26.75;;;;;12.68;64.36;101788.03;146595;586;47010;-74
2021/10/29 00:23:52;;;;;;;;;30.25;28.25;;;;;12.65;64.24;101795.66;146598;591;46020;-74
2021/10/29 00:26:27;;;;;;;;;30.75;28.25;;;;;12.64;65.31;101806.84;146599;701;46016;-76
2021/10/29 00:29:01;;;;;;;;;28.25;24.00;;;;;12.57;66.04;101800.38;146601;619;46008;-77
2021/10/29 00:31:34;;;;;;;;;32.00;29.75;;;;;12.50;64.99;101795.63;146595;580;47010;-76
2021/10/29 00:34:08;;;;;;;;;30.75;28.00;;;;;12.48;64.28;101802.44;146596;581;47008;-77
2021/10/29 00:36:43;;;;;;;;;29.75;29.50;;;;;12.47;64.59;101795.44;146598;605;47010;-77
2021/10/29 00:39:17;;;;;;;;;30.75;26.75;;;;;12.50;64.34;101807.75;146600;598;46008;-78
2021/10/29 00:41:51;;;;;;;;;27.50;27.00;;;;;12.47;64.21;101800.66;146597;685;46016;-77
2021/10/29 00:44:30;;;;;;;;;27.25;24.25;;;;;12.47;64.22;101801.53;146598;579;46020;-78
2021/10/29 00:47:03;;;;;;;;;29.00;25.25;;;;;12.48;64.10;101799.84;146596;714;47909;-78
2021/10/29 00:49:37;;;;;;;;;28.75;26.75;;;;;12.45;63.73;101797.94;146598;600;47008;-77
2021/10/29 00:52:11;;;;;;;;;31.75;27.00;;;;;12.47;63.90;101800.66;146595;573;47010;-77
2021/10/29 00:54:45;;;;;;;;;30.00;26.25;;;;;12.46;64.43;101799.75;146599;602;46020;-76
2021/10/29 00:57:19;;;;;;;;;29.00;25.75;;;;;12.41;64.85;101790.75;146598;670;46016;-76
2021/10/29 00:59:54;;;;;;;;;33.25;29.50;;;;;12.38;64.35;101798.38;146598;646;47008;-75
2021/10/29 01:02:29;;;;;;;;;31.75;28.00;;;;;12.32;64.56;101798.00;146596;729;46016;-77
2021/10/29 01:05:04;;;;;;;;;30.75;27.50;;;;;12.27;64.45;101791.62;146598;591;46021;-70
2021/10/29 01:07:38;;;;;;;;;29.00;26.50;;;;;12.10;64.73;101782.78;146595;673;46032;-93
2021/10/29 01:10:13;;;;;;;;;29.50;25.50;;;;;12.11;64.21;101784.56;146602;580;45025;-93
2021/10/29 01:12:47;;;;;;;;;34.50;28.75;;;;;12.04;66.33;101784.12;146596;593;46016;-92
2021/10/29 01:15:21;;;;;;;;;31.75;28.75;;;;;11.93;66.21;101786.03;146600;611;46020;-91
2021/10/29 01:17:55;;;;;;;;;31.25;26.75;;;;;11.84;66.40;101783.75;146596;571;46018;-85
2021/10/29 01:20:29;;;;;;;;;34.00;30.50;;;;;11.80;65.80;101774.81;146598;569;47008;-79
2021/10/29 01:23:03;;;;;;;;;29.25;27.25;;;;;11.79;66.13;101777.34;146596;589;46016;-83
2021/10/29 01:25:37;;;;;;;;;33.50;27.75;;;;;11.82;65.99;101774.03;146599;600;46022;-83
2021/10/29 01:28:15;;;;;;;;;33.25;29.50;;;;;11.86;66.35;101776.94;146596;627;46016;-75
2021/10/29 01:30:49;;;;;;;;;27.00;26.00;;;;;11.88;67.72;101779.66;146602;583;45908;-81
2021/10/29 01:33:22;;;;;;;;;34.00;28.50;;;;;11.86;67.05;101774.34;146595;581;46017;-81
2021/10/29 01:35:58;;;;;;;;;37.50;31.50;;;;;11.86;66.45;101766.56;146599;569;46022;-73
2021/10/29 01:38:36;;;;;;;;;26.25;24.50;;;;;11.92;65.98;101768.66;146596;673;46016;-77
2021/10/29 01:41:10;;;;;;;;;32.00;29.50;;;;;11.98;66.48;101780.31;146597;719;46021;-79
2021/10/29 01:43:50;;;;;;;;;35.50;29.00;;;;;12.02;67.57;101773.59;146596;631;46018;-75
2021/10/29 01:46:27;;;;;;;;;35.50;30.50;;;;;12.04;66.80;101766.81;146600;576;46021;-74
2021/10/29 01:49:01;;;;;;;;;29.25;27.50;;;;;12.09;66.00;101772.31;146597;615;46016;-72
2021/10/29 01:51:35;;;;;;;;;32.50;31.00;;;;;12.13;67.88;101774.28;146598;653;47010;-72
2021/10/29 01:54:09;;;;;;;;;34.00;30.75;;;;;12.16;67.25;101771.88;146596;633;47010;-71
2021/10/29 01:56:44;;;;;;;;;32.25;28.50;;;;;12.17;66.44;101765.84;146601;571;46020;-72
2021/10/29 01:59:17;;;;;;;;;29.25;28.50;;;;;12.20;67.22;101764.34;146600;564;46010;-74
2021/10/29 02:01:51;;;;;;;;;31.50;28.00;;;;;12.20;67.29;101766.06;146597;569;46020;-78
2021/10/29 02:04:26;;;;;;;;;29.75;27.75;;;;;12.14;66.42;101755.28;146597;581;46028;-76
2021/10/29 02:07:00;;;;;;;;;32.75;30.75;;;;;12.20;66.77;101766.94;146598;569;47010;-76
2021/10/29 02:09:33;;;;;;;;;36.00;31.25;;;;;12.22;66.44;101774.84;146595;590;47010;-74
2021/10/29 02:12:08;;;;;;;;;31.25;29.50;;;;;12.23;67.11;101766.22;146597;598;47010;-76
2021/10/29 02:14:41;;;;;;;;;31.50;27.75;;;;;12.26;66.72;101763.81;146597;651;46016;-76
2021/10/29 02:17:16;;;;;;;;;37.00;32.25;;;;;12.32;66.29;101763.31;146597;609;47010;-76
2021/10/29 02:19:49;;;;;;;;;33.50;29.75;;;;;12.33;66.39;101763.38;146597;597;47010;-77
2021/10/29 02:22:23;;;;;;;;;32.00;28.50;;;;;12.39;65.04;101770.66;146596;606;47008;-77
2021/10/29 02:24:57;;;;;;;;;33.75;29.75;;;;;12.44;65.71;101777.94;146594;584;47010;-76
2021/10/29 02:27:31;;;;;;;;;33.25;29.75;;;;;12.48;65.50;101766.00;146597;653;47008;-76
2021/10/29 02:30:05;;;;;;;;;38.00;32.50;;;;;12.53;64.99;101767.19;146598;649;46010;-77
2021/10/29 02:32:39;;;;;;;;;39.00;33.25;;;;;12.56;64.71;101769.09;146599;682;47008;-77
2021/10/29 02:35:13;;;;;;;;;41.50;34.25;;;;;12.58;65.21;101768.34;146597;624;47010;-77
2021/10/29 02:37:48;;;;;;;;;41.25;33.75;;;;;12.48;64.51;101740.91;146597;573;47020;-79
2021/10/29 02:40:22;;;;;;;;;41.50;33.00;;;;;12.67;64.12;101775.81;146596;600;46031;-73
2021/10/29 02:42:56;;;;;;;;;38.25;31.75;;;;;12.68;64.13;101773.31;146601;564;45907;-72
2021/10/29 02:45:30;;;;;;;;;33.75;30.25;;;;;12.73;62.92;101772.69;146598;601;46018;-73
2021/10/29 02:48:04;;;;;;;;;38.25;31.25;;;;;12.75;62.97;101773.69;146599;633;46021;-76
2021/10/29 02:50:38;;;;;;;;;32.25;29.00;;;;;12.80;62.54;101780.03;146595;608;47010;-79
2021/10/29 02:53:12;;;;;;;;;37.00;32.00;;;;;12.82;63.24;101776.72;146599;605;46021;-75
2021/10/29 02:55:46;;;;;;;;;40.00;32.25;;;;;12.84;63.19;101769.91;146595;566;47017;-77
2021/10/29 02:58:22;;;;;;;;;37.50;32.00;;;;;12.85;62.58;101770.81;146599;657;47006;-78
2021/10/29 03:00:57;;;;;;;;;34.25;30.25;;;;;12.88;62.86;101765.78;146594;660;47018;-77
2021/10/29 03:03:32;;;;;;;;;36.50;33.50;;;;;12.86;64.12;101770.00;146599;583;47008;-84
2021/10/29 03:06:05;;;;;;;;;37.75;34.00;;;;;12.81;63.58;101767.12;146598;592;46016;-82
2021/10/29 03:08:39;;;;;;;;;39.25;33.00;;;;;12.79;62.63;101768.72;146598;564;46021;-81
2021/10/29 03:11:13;;;;;;;;;32.25;30.25;;;;;12.79;63.48;101770.44;146599;576;47010;-82
2021/10/29 03:13:47;;;;;;;;;36.00;32.25;;;;;12.81;63.67;101766.25;146599;577;47006;-81
2021/10/29 03:16:21;;;;;;;;;39.25;32.50;;;;;12.84;63.22;101767.31;146598;609;46010;-77
2021/10/29 03:18:55;;;;;;;;;31.75;28.25;;;;;12.86;63.16;101767.38;146597;572;47008;-74
2021/10/29 03:21:29;;;;;;;;;36.00;30.50;;;;;12.88;63.10;101771.00;146597;585;47010;-75
2021/10/29 03:24:03;;;;;;;;;41.25;30.75;;;;;12.90;62.76;101767.66;146598;638;47009;-75
2021/10/29 03:26:37;;;;;;;;;38.50;32.50;;;;;12.88;62.15;101769.28;146594;646;47010;-71
2021/10/29 03:29:11;;;;;;;;;36.25;31.25;;;;;12.90;62.28;101772.00;146598;636;47006;-72
2021/10/29 03:31:45;;;;;;;;;41.00;33.50;;;;;12.92;62.51;101773.84;146598;631;47018;-79
2021/10/29 03:34:19;;;;;;;;;27.25;24.75;;;;;12.92;62.86;101765.13;146599;623;47008;-78
2021/10/29 03:36:53;;;;;;;;;36.50;31.75;;;;;12.92;63.31;101763.44;146596;564;47010;-73
2021/10/29 03:39:33;;;;;;;;;41.50;32.50;;;;;12.91;62.46;101769.47;146598;608;47008;-75
2021/10/29 03:42:17;;;;;;;;;35.75;30.00;;;;;12.88;63.12;101763.19;146596;570;46018;-75
2021/10/29 03:44:58;;;;;;;;;38.75;32.50;;;;;12.85;62.84;101766.50;146596;618;47008;-73
2021/10/29 03:47:40;;;;;;;;;41.25;31.00;;;;;12.84;62.86;101769.03;146595;573;47010;-77
2021/10/29 03:50:24;;;;;;;;;37.00;32.50;;;;;12.85;63.37;101769.09;146602;577;46008;-81
2021/10/29 03:53:11;;;;;;;;;31.75;29.25;;;;;12.86;63.97;101770.88;146599;777;45910;-84
2021/10/29 03:55:45;;;;;;;;;35.75;30.75;;;;;12.84;64.21;101763.81;146599;577;46020;-83
2021/10/29 03:58:19;;;;;;;;;31.50;27.50;;;;;12.84;63.54;101763.81;146598;658;46016;-82
2021/10/29 04:00:53;;;;;;;;;40.75;32.75;;;;;12.84;63.63;101763.81;146597;622;47008;-83
2021/10/29 04:03:27;;;;;;;;;39.25;33.00;;;;;12.83;63.86;101765.50;146597;620;46021;-82
2021/10/29 04:06:01;;;;;;;;;37.00;33.25;;;;;12.82;63.94;101758.50;146596;569;46020;-83
2021/10/29 04:08:35;;;;;;;;;35.75;33.00;;;;;12.82;64.83;101766.31;146597;577;46018;-83
2021/10/29 04:11:09;;;;;;;;;39.25;32.50;;;;;12.79;64.71;101763.53;146599;661;46020;-83
2021/10/29 04:13:44;;;;;;;;;42.50;33.00;;;;;12.78;64.78;101763.47;146596;694;46016;-82
2021/10/29 04:16:19;;;;;;;;;39.25;33.75;;;;;12.77;65.44;101770.34;146599;664;47008;-82
2021/10/29 04:18:53;;;;;;;;;37.50;32.50;;;;;12.76;64.85;101762.47;146595;565;46925;-80
2021/10/29 04:21:27;;;;;;;;;35.75;31.75;;;;;12.74;66.37;101762.37;146599;634;46020;-81
2021/10/29 04:24:00;;;;;;;;;35.25;31.75;;;;;12.70;66.31;101758.66;146596;597;47019;-81
2021/10/29 04:26:36;;;;;;;;;36.75;31.50;;;;;12.67;65.52;101770.59;146602;614;46006;-79
2021/10/29 04:29:14;;;;;;;;;42.25;33.25;;;;;12.64;65.36;101766.13;146596;594;46016;-76
2021/10/29 04:31:52;;;;;;;;;40.50;31.25;;;;;12.65;65.31;101767.94;146599;566;46021;-74
2021/10/29 04:34:28;;;;;;;;;45.00;36.25;;;;;12.65;66.86;101770.53;146595;602;47010;-76
2021/10/29 04:37:03;;;;;;;;;40.75;34.50;;;;;12.63;65.45;101776.44;146598;593;47009;-78
2021/10/29 04:39:37;;;;;;;;;40.50;33.50;;;;;12.61;65.56;101773.75;146593;569;47910;-79
2021/10/29 04:42:11;;;;;;;;;41.00;33.75;;;;;12.63;65.87;101771.25;146600;609;46020;-74
2021/10/29 04:44:45;;;;;;;;;43.00;33.50;;;;;12.64;66.06;101773.91;146598;694;46017;-74
2021/10/29 04:47:19;;;;;;;;;46.00;34.50;;;;;12.65;66.38;101774.84;146599;671;46020;-85
2021/10/29 04:49:53;;;;;;;;;45.25;35.00;;;;;12.62;66.54;101772.97;146596;565;46016;-85
2021/10/29 04:52:27;;;;;;;;;43.50;36.25;;;;;12.58;66.83;101775.25;146598;733;46009;-82
2021/10/29 04:55:00;;;;;;;;;42.00;34.25;;;;;12.53;67.23;101782.81;146597;655;46010;-85
2021/10/29 04:57:35;;;;;;;;;42.25;33.75;;;;;12.47;67.45;101772.94;146601;595;45026;-80
2021/10/29 05:00:10;;;;;;;;;42.25;35.75;;;;;12.40;67.75;101768.16;146595;633;47018;-76
2021/10/29 05:02:45;;;;;;;;;40.75;33.00;;;;;12.34;67.21;101767.81;146597;597;47008;-83
2021/10/29 05:05:18;;;;;;;;;45.25;35.50;;;;;12.30;67.24;101776.19;146596;645;46910;-84
2021/10/29 05:07:52;;;;;;;;;39.25;34.00;;;;;12.29;66.99;101779.63;146597;564;46908;-84
2021/10/29 05:10:26;;;;;;;;;43.00;36.75;;;;;12.32;67.81;101779.81;146596;572;46016;-84
2021/10/29 05:13:01;;;;;;;;;42.00;34.00;;;;;12.31;68.29;101782.31;146599;569;47008;-90
2021/10/29 05:15:35;;;;;;;;;48.00;36.00;;;;;12.23;67.99;101790.53;146598;629;46016;-82
2021/10/29 05:18:15;;;;;;;;;40.50;34.75;;;;;12.16;68.03;101788.38;146600;581;46008;-81
2021/10/29 05:20:48;;;;;;;;;40.50;35.25;;;;;12.11;67.54;101792.38;146592;608;47018;-81
2021/10/29 05:23:23;;;;;;;;;42.25;35.25;;;;;12.10;67.14;101794.91;146600;617;47008;-77
2021/10/29 05:25:56;;;;;;;;;40.75;34.25;;;;;12.12;67.51;101794.19;146597;606;47010;-78
2021/10/29 05:28:31;;;;;;;;;41.25;36.25;;;;;12.17;67.50;101799.66;146599;658;46020;-77
2021/10/29 05:31:05;;;;;;;;;48.00;38.25;;;;;12.19;67.84;101811.06;146596;574;46017;-78
2021/10/29 05:33:39;;;;;;;;;42.25;34.75;;;;;12.15;68.53;101803.84;146599;571;46020;-78
2021/10/29 05:36:13;;;;;;;;;48.00;36.50;;;;;12.10;67.06;101803.59;146595;582;46018;-75
2021/10/29 05:38:47;;;;;;;;;41.25;33.50;;;;;12.12;67.09;101798.47;146599;606;47006;-71
2021/10/29 05:41:21;;;;;;;;;43.75;35.75;;;;;12.15;68.29;101815.19;146594;604;47010;-71
2021/10/29 05:43:55;;;;;;;;;45.50;34.50;;;;;12.15;68.32;101820.37;146601;575;46021;-71
2021/10/29 05:46:31;;;;;;;;;45.25;33.25;;;;;12.13;67.41;101816.78;146596;615;46016;-71
2021/10/29 05:49:09;;;;;;;;;35.00;30.75;;;;;12.17;67.26;101823.94;146596;577;47008;-71
2021/10/29 05:51:46;;;;;;;;;43.50;35.50;;;;;12.22;67.66;101832.06;146597;621;46017;-77
2021/10/29 05:54:50;;;;;;;;;45.50;34.75;;;;;12.24;66.91;101822.63;146595;595;47008;-76
2021/10/29 05:57:25;;;;;;;;;44.25;36.50;;;;;12.32;66.83;101825.72;146596;721;46016;-80
2021/10/29 05:59:59;;;;;;;;;42.00;34.50;;;;;12.28;66.49;101808.12;146599;565;46010;-80
2021/10/29 06:02:33;;;;;;;;;37.25;34.00;;;;;12.50;67.11;101826.84;146594;580;47010;-80
2021/10/29 06:05:07;;;;;;;;;44.75;36.25;;;;;12.55;66.89;101837.53;146599;630;46908;-80
2021/10/29 06:07:42;;;;;;;;;50.00;40.25;;;;;12.57;66.10;101836.81;146597;574;46017;-78
2021/10/29 06:10:19;;;;;;;;;46.50;37.50;;;;;12.62;66.60;101835.41;146599;585;46020;-72
2021/10/29 06:12:52;;;;;;;;;44.50;37.00;;;;;12.70;65.30;101831.53;146596;604;47010;-74
2021/10/29 06:15:27;;;;;;;;;40.50;34.50;;;;;12.80;66.02;101832.09;146600;615;46021;-72
2021/10/29 06:18:00;;;;;;;;;44.00;35.50;;;;;12.87;65.17;101834.28;146596;656;47010;-73
2021/10/29 06:20:35;;;;;;;;;45.00;36.50;;;;;12.97;65.00;101838.31;146597;613;46008;-78
2021/10/29 06:23:09;;;;;;;;;43.75;35.00;;;;;13.05;65.44;101843.19;146594;580;47010;-75
2021/10/29 06:25:46;;;;;;;;;43.50;34.75;;;;;13.12;65.69;101837.50;146598;592;47008;-74
2021/10/29 06:28:28;;;;;;;;;40.50;35.00;;;;;13.21;65.16;101849.25;146596;603;46016;-80
2021/10/29 06:31:02;;;;;;;;;44.50;35.00;;;;;13.26;64.93;101847.88;146602;576;45021;-81
2021/10/29 06:33:40;;;;;;;;;43.50;34.75;;;;;13.28;64.89;101846.25;146597;723;46016;-81
2021/10/29 06:36:14;;;;;;;;;45.25;35.50;;;;;13.32;64.85;101859.53;146601;635;46008;-82
2021/10/29 06:38:48;;;;;;;;;47.50;38.25;;;;;13.32;65.25;101856.94;146597;582;46010;-82
2021/10/29 06:41:22;;;;;;;;;44.75;36.50;;;;;13.31;65.21;101852.53;146598;591;46020;-73
2021/10/29 07:02:07;;;;;;;;;36.00;31.50;;;;;13.43;63.13;101846.22;146596;607;46016;-71
2021/10/29 07:42:09;;;;;;;;;51.50;40.00;;;;;13.81;64.60;101851.03;146597;593;46017;-75
2021/10/29 07:44:43;;;;;;;;;45.50;38.50;;;;;13.81;63.80;101848.41;146603;578;46020;-76
2021/10/29 07:47:17;;;;;;;;;43.00;35.50;;;;;13.83;64.40;101845.09;146595;594;47018;-76
2021/10/29 07:49:51;;;;;;;;;47.00;38.25;;;;;13.84;64.39;101846.87;146600;626;46008;-76
2021/10/29 07:52:25;;;;;;;;;46.25;35.75;;;;;13.89;64.00;101844.50;146596;743;46016;-77
2021/10/29 07:54:59;;;;;;;;;37.00;30.00;;;;;13.94;63.86;101848.28;146597;585;46020;-75
2021/10/29 07:57:33;;;;;;;;;42.00;32.75;;;;;13.98;63.26;101849.34;146594;631;47017;-76
2021/10/29 08:00:10;;;;;;;;;41.25;31.50;;;;;14.04;63.72;101844.47;146600;644;46020;-77
2021/10/29 08:02:44;;;;;;;;;40.25;34.25;;;;;14.12;63.64;101847.50;146598;613;47010;-79
2021/10/29 08:05:19;;;;;;;;;42.75;35.75;;;;;14.20;63.41;101843.59;146598;643;47008;-73
2021/10/29 08:07:56;;;;;;;;;44.75;37.00;;;;;14.27;63.25;101845.75;146595;595;46016;-73
2021/10/29 08:10:30;;;;;;;;;41.75;35.00;;;;;14.36;63.76;101848.84;146597;578;47008;-79
2021/10/29 08:13:05;;;;;;;;;45.75;37.00;;;;;14.44;62.99;101847.53;146597;629;46017;-73
2021/10/29 08:15:39;;;;;;;;;49.25;40.75;;;;;14.50;62.08;101846.97;146600;625;46008;-77
2021/10/29 08:18:14;;;;;;;;;46.25;37.75;;;;;14.53;62.17;101836.72;146596;608;46030;-75
2021/10/29 08:20:48;;;;;;;;;49.25;39.00;;;;;14.58;62.46;101840.47;146600;563;47008;-75
2021/10/29 08:23:21;;;;;;;;;47.75;38.00;;;;;14.61;62.37;101831.88;146597;582;47909;-76
2021/10/29 08:25:56;;;;;;;;;50.00;40.00;;;;;14.66;61.99;101844.38;146599;573;46020;-73
2021/10/29 08:28:29;;;;;;;;;45.75;38.50;;;;;14.68;62.18;101839.25;146595;666;47021;-75
2021/10/29 08:31:04;;;;;;;;;24.50;24.00;;;;;14.70;62.80;101833.28;146602;603;46020;-81
2021/10/29 08:33:38;;;;;;;;;31.50;26.75;;;;;14.76;63.44;101830.06;146597;596;47010;-74
2021/10/29 08:36:12;;;;;;;;;31.25;28.25;;;;;14.82;63.43;101829.50;146599;564;46008;-81
2021/10/29 08:38:46;;;;;;;;;35.00;30.00;;;;;14.88;63.09;101833.31;146598;703;46016;-82
2021/10/29 08:41:20;;;;;;;;;31.75;29.75;;;;;14.96;63.06;101841.56;146600;614;46008;-82
2021/10/29 08:43:54;;;;;;;;;31.50;27.75;;;;;15.01;62.14;101834.84;146599;616;46016;-82
2021/10/29 08:46:32;;;;;;;;;34.00;30.75;;;;;15.08;62.90;101842.19;146601;577;46020;-81
2021/10/29 08:49:06;;;;;;;;;41.25;32.25;;;;;15.13;62.97;101837.19;146599;629;46016;-82
2021/10/29 08:51:40;;;;;;;;;40.25;34.75;;;;;15.20;62.92;101840.19;146599;662;47008;-81
2021/10/29 08:54:14;;;;;;;;;45.50;38.00;;;;;15.28;62.76;101829.22;146596;613;47010;-83
2021/10/29 08:56:49;;;;;;;;;41.75;36.25;;;;;15.34;62.18;101830.41;146600;576;46020;-83
2021/10/29 08:59:32;;;;;;;;;53.25;43.00;;;;;15.40;60.70;101835.06;146595;617;47909;-86
2021/10/29 09:02:22;;;;;;;;;55.75;42.25;;;;;15.37;60.23;101832.28;146601;596;46008;-82
2021/10/29 09:05:11;;;;;;;;;53.75;42.50;;;;;15.32;60.69;101834.66;146596;606;46017;-84
2021/10/29 09:16:56;;;;;;;;;52.50;41.75;;;;;15.26;61.38;101821.28;146595;563;47912;-81
2021/10/29 09:31:37;;;;;;;;;46.50;39.25;;;;;15.30;61.55;101817.16;146622;583;46010;-79
2021/10/29 09:34:16;;;;;;;;;51.25;40.75;;;;;15.33;61.60;101815.56;146625;579;45010;-81
2021/10/29 09:36:54;;;;;;;;;48.00;37.75;;;;;15.40;61.71;101811.53;146625;585;45020;-81
2021/10/29 09:39:29;;;;;;;;;46.50;37.00;;;;;15.48;61.12;101813.72;146622;568;45910;-81
2021/10/29 09:42:14;;;;;;;;;50.75;40.25;;;;;15.64;60.70;101806.59;146625;582;46020;-81
2021/10/29 09:44:53;;;;;;;;;39.25;34.50;;;;;15.77;59.87;101800.28;146623;592;45029;-83
2021/10/29 09:47:29;;;;;;;;;36.25;33.50;;;;;15.84;59.89;101792.78;146624;652;45008;-82
2021/10/29 09:50:23;;;;;;;;;44.75;35.25;;;;;15.54;59.41;101724.22;146625;579;45016;-82
2021/10/29 09:53:11;;;;;;;;;41.00;33.75;;;;;15.99;59.29;101791.72;146626;578;45008;-81
2021/10/29 09:55:55;;;;;;;;;47.00;39.50;;;;;16.01;59.68;101785.72;146624;599;46018;-82
2021/10/29 09:58:29;;;;;;;;;46.75;38.25;;;;;16.06;60.14;101788.53;146623;611;45907;-82
2021/10/29 10:01:05;;;;;;;;;45.50;37.25;;;;;16.12;59.75;101783.59;146624;572;45016;-82
2021/10/29 10:03:41;;;;;;;;;49.75;38.50;;;;;16.23;59.96;101776.22;146623;574;45020;-82
2021/10/29 10:06:17;;;;;;;;;52.25;41.75;;;;;16.35;59.85;101779.37;146627;570;44018;-81
2021/10/29 10:08:53;;;;;;;;;44.00;36.50;;;;;16.47;59.63;101769.44;146623;605;46008;-81
2021/10/29 10:11:29;;;;;;;;;45.25;34.75;;;;;16.63;59.59;101777.16;146623;574;45030;-81
2021/10/29 10:14:04;;;;;;;;;47.00;39.25;;;;;16.78;58.48;101765.56;146625;592;45020;-76
2021/10/29 10:16:41;;;;;;;;;45.25;37.50;;;;;16.90;57.74;101754.72;146624;578;45020;-81
2021/10/29 10:19:15;;;;;;;;;50.75;43.00;;;;;16.96;57.74;101757.59;146623;578;45021;-81
2021/10/29 10:21:53;;;;;;;;;43.75;37.50;;;;;16.99;57.56;101753.38;146623;696;45909;-82
2021/10/29 10:24:32;;;;;;;;;35.00;31.75;;;;;17.06;56.76;101749.28;146606;754;47009;-84
2021/10/29 10:27:32;;;;;;;;;31.25;29.75;;;;;17.15;56.23;101746.16;146595;598;46016;-83
2021/10/29 10:42:31;;;;;;;;;25.00;25.00;;;;;18.08;54.29;101725.31;146598;659;47021;-83
2021/10/29 10:48:00;;;;;;;;;25.00;20.75;;;;;18.44;54.01;101726.62;146598;564;46008;-81
2021/10/29 10:50:38;;;;;;;;;17.00;15.25;;;;;18.54;52.21;101680.56;146598;684;46016;-82
2021/10/29 10:53:26;;;;;;;;;13.75;12.75;;;;;19.07;52.27;101725.25;146599;609;46020;-82
2021/10/29 10:56:23;;;;;;;;;16.25;15.00;;;;;19.24;51.46;101718.78;146597;564;46017;-82
2021/10/29 10:59:28;;;;;;;;;11.75;9.50;;;;;19.34;50.34;101712.06;146600;640;46020;-82
2021/10/29 11:11:57;;;;;;;;;10.00;8.00;;;;;19.99;49.44;101702.66;146602;693;46021;-81
2021/10/29 11:14:38;;;;;;;;;10.33;8.67;;;;;19.93;48.73;101702.47;146597;563;47018;-78
2021/10/29 11:17:12;;;;;;;;;6.67;6.67;;;;;19.82;48.91;101694.28;146600;653;46010;-80
2021/10/29 11:19:56;;;;;;;;;7.67;7.00;;;;;19.68;49.32;101684.19;146599;604;47010;-84
2021/10/29 11:22:49;;;;;;;;;8.75;8.50;;;;;19.53;48.24;101681.97;146598;615;47008;-83
2021/10/29 11:25:23;;;;;;;;;10.00;10.00;;;;;19.39;49.86;101690.34;146598;642;46017;-78
2021/10/29 11:28:01;;;;;;;;;11.00;10.00;;;;;19.34;48.79;101681.41;146602;604;46020;-79
2021/10/29 11:30:46;;;;;;;;;10.75;8.25;;;;;19.33;50.66;101678.75;146597;634;46017;-82
2021/10/29 11:33:20;;;;;;;;;8.33;6.33;;;;;19.27;49.68;101658.41;146600;576;46908;-83
2021/10/29 11:36:11;;;;;;;;;7.67;7.67;;;;;19.73;51.17;101667.69;146594;649;47909;-73
2021/10/29 11:38:48;;;;;;;;;9.75;8.50;;;;;20.14;46.84;101660.06;146598;681;47011;-74
2021/10/29 11:41:34;;;;;;;;;6.00;6.00;;;;;20.47;45.58;101654.81;146599;606;46016;-73
2021/10/29 11:44:14;;;;;;;;;8.67;7.67;;;;;20.71;46.83;101661.56;146601;661;46020;-72
2021/10/29 11:46:49;;;;;;;;;9.75;8.75;;;;;20.93;44.84;101652.41;146594;595;47910;-77
2021/10/29 11:49:28;;;;;;;;;11.00;8.50;;;;;21.12;45.07;101644.09;146599;563;46020;-79
2021/10/29 11:52:05;;;;;;;;;9.25;8.25;;;;;20.88;45.19;101588.16;146596;671;47010;-80
2021/10/29 11:54:43;;;;;;;;;16.25;15.25;;;;;21.21;46.58;101619.66;146597;580;47008;-79
2021/10/29 11:57:29;;;;;;;;;7.00;6.33;;;;;21.42;42.19;101627.19;146597;586;47010;-77
2021/10/29 12:06:11;;;;;;;;;11.00;8.75;;;;;21.29;43.79;101633.03;146599;565;47008;-75
2021/10/29 12:08:45;;;;;;;;;8.33;8.33;;;;;21.37;42.40;101624.47;146600;705;46018;-76
2021/10/29 12:11:22;;;;;;;;;9.00;8.00;;;;;21.34;41.21;101624.34;146600;594;46021;-81
2021/10/29 12:13:56;;;;;;;;;8.67;7.67;;;;;21.23;40.16;101617.94;146600;662;46010;-85
2021/10/29 12:16:30;;;;;;;;;10.00;8.67;;;;;21.03;42.27;101614.88;146599;569;47008;-75
2021/10/29 12:19:08;;;;;;;;;9.33;8.33;;;;;21.02;41.33;101628.00;146598;601;46912;-78
2021/10/29 12:21:45;;;;;;;;;8.33;7.00;;;;;21.09;43.43;101611.47;146602;565;46020;-79
2021/10/29 12:24:20;;;;;;;;;9.00;9.00;;;;;21.21;41.74;101610.03;146596;613;47010;-79
2021/10/29 12:27:03;;;;;;;;;9.00;9.00;;;;;21.29;43.81;101607.53;146600;569;46020;-78
2021/10/29 12:29:36;;;;;;;;;9.00;8.00;;;;;21.28;40.12;101597.84;146597;580;47912;-79
2021/10/29 12:32:39;;;;;;;;;7.33;6.00;;;;;21.21;37.62;101606.47;146600;600;47010;-80
2021/10/29 13:04:59;;;;;;;;;10.33;8.00;;;;;20.11;43.72;101590.63;146642;565;46012;-78
2021/10/29 13:07:37;;;;;;;;;7.67;7.67;;;;;20.15;44.67;101596.00;146623;612;46017;-79
2021/10/29 13:10:14;;;;;;;;;8.75;7.00;;;;;20.12;44.53;101588.03;146626;579;46020;-78
2021/10/29 13:13:10;;;;;;;;;10.50;8.75;;;;;20.10;44.88;101588.88;146620;575;45020;-78
2021/10/29 13:15:46;;;;;;;;;9.00;9.00;;;;;20.03;45.38;101579.88;146627;616;45020;-78
2021/10/29 13:18:25;;;;;;;;;8.75;6.50;;;;;19.99;45.33;101585.94;146621;644;46016;-79
2021/10/29 13:21:41;;;;;;;;;6.00;6.00;;;;;19.94;44.04;101584.94;146628;701;45021;-78
2021/10/29 13:27:36;;;;;;;;;9.33;9.00;;;;;19.57;46.25;101590.03;146629;629;45020;-78
2021/10/29 13:36:11;;;;;;;;;8.25;6.50;;;;;19.27;44.53;101587.41;146619;648;46016;-78
2021/10/29 14:17:03;;;;;;;;;11.25;10.25;;;;;17.69;48.57;101594.41;146618;566;47018;-76
2021/10/29 14:28:19;;;;;;;;;9.00;7.50;;;;;17.55;50.26;101581.69;146623;600;45033;-76
2021/10/29 14:31:04;;;;;;;;;8.75;8.50;;;;;17.63;49.14;101588.94;146623;656;47021;-79
2021/10/29 14:33:46;;;;;;;;;11.25;9.75;;;;;17.65;49.40;101589.91;146622;631;46012;-76
2021/10/29 14:36:23;;;;;;;;;13.00;12.00;;;;;17.59;49.08;101584.44;146629;591;45021;-77
2021/10/29 14:39:09;;;;;;;;;13.75;13.75;;;;;17.46;49.30;101583.97;146621;615;46020;-76
2021/10/29 14:45:00;;;;;;;;;5.50;4.00;;;;;17.33;49.24;101584.38;146618;669;46016;-78
2021/10/29 14:47:47;;;;;;;;;17.25;14.25;;;;;17.24;48.87;101578.78;146626;673;46010;-71
2021/10/29 15:05:31;;;;;;;;;9.00;8.50;;;;;16.90;50.65;101577.47;146623;577;46021;-77
2021/10/29 15:25:48;;;;;;;;;17.25;15.50;;;;;16.56;50.96;101581.34;146621;614;46012;-78
2021/10/29 15:28:38;;;;;;;;;16.75;16.50;;;;;16.51;51.36;101582.91;146622;668;46021;-79
2021/10/29 15:31:29;;;;;;;;;15.00;12.50;;;;;16.49;51.54;101574.06;146622;612;46012;-76
2021/10/29 15:43:29;;;;;;;;;;;;;;;;;;;;;
2021/10/29 15:46:10;;;;;;;;;20.00;19.25;;;;;16.18;54.17;101571.91;146626;674;46010;-77
2021/10/29 15:52:02;;;;;;;;;11.25;11.25;;;;;15.95;54.89;101570.97;146621;635;46020;-85
2021/10/29 15:57:52;;;;;;;;;23.25;20.75;;;;;15.80;55.90;101584.25;146622;591;46011;-76
2021/10/29 16:03:28;;;;;;;;;24.50;20.50;;;;;15.74;55.46;101591.84;146624;581;45020;-72